Latest Weather Forecast - Thursday 18th February 2021 (6 pm)

Forecast Period: 

 6 pm  18th February 2021 to 6 am 19th February 2021 

Synopsis:

 Weak unstable conditions are approaching our islands

Forecast:

 Fair and breezy; becoming occasionally cloudy, with strong breeze and scattered showers

Weather Advisory:

 Be alert; in wind-exposed areas

Winds:

 NE – ENE at 30 – 45 km/h (19 – 28 mph)

Sea Conditions:

 Moderate to rough in open water; east north-easterly swells (1.5 – 3.0 m)

Marine Warning:

 Be prepared; for occasional rough sea-conditions with gusty winds

Upcoming Tides:
 High: 11:38 pm (18th) **** 12:11 pm
               Low:

****

07:38 am

05:11 pm

Aviation WX

[Source: ADDS]
METAR
TVSA 081000Z 07012KT 040V100 9999 SCT018 25/22 Q1015 NOSIG =
TVSA 080500Z 0806/0906 07010KT 9999 SCT018
TAF
TVSA 080500Z 0806/0906 07010KT 9999 SCT018 =
SR / SS: 10:16 / 22:14 UTC (Sunrise Sunset 2021-03-08)